»·PEaware :: JZA098 KSEA-CYVR

JZA098 :: KSEA-CYVR

FLIGHT INFORMATION

Flight Status: Arrived
Operator:
Air Canada Jazz
More flights by this operator :: More flights under this callsign
Pilot: Alec F. (19937)
Aircraft: CANADAIR CL-600 CRJ-200
(CRJ2)
More flights by this aircraft type
Origin: KSEA Seattle-Tacoma Intl
United States
Destination: CYVR Vancouver Intl
Canada
More flights between these airports :: More routes between these airports
Route: +SEA7 PAE GRIZZ6
File this flight plan on PilotEdge
Remarks: Charts / Foreflight onboard
Altitude:
(Current/Filed)
16,000ft
Speed:
(Current/Filed)
410kts
Departed: 16-Dec-18 06:38 PM
Arrived: 16-Dec-18 07:14 PM
Distance/Time
Traveled:
851nm/0:36
Distance/Time
To Go:
Arrived

Flight Plot

Page will automatically refresh every two minutes.

Flight plan parsing failed; only flown route is shown


Map Options




Map Legend


Flown Route
Filed Route
Departure Airport
Arrival Airport
Navaid (VOR, NDB)
Fix

Horizontal Profiles

Position Reports

Time Latitude Longitude Heading Altitude Ground
Speed
16-Dec-18 17:37 47.446228 -122.303182 248 391ft 0kts
16-Dec-18 17:38 47.446228 -122.303182 248 391ft 0kts
16-Dec-18 17:39 47.446228 -122.303182 248 391ft 0kts
16-Dec-18 17:40 47.446228 -122.303182 248 391ft 0kts
16-Dec-18 17:41 47.446228 -122.303182 248 391ft 0kts
16-Dec-18 17:42 47.446228 -122.303182 248 391ft 0kts
16-Dec-18 17:43 47.446228 -122.303182 248 391ft 0kts
16-Dec-18 17:44 47.446228 -122.303182 248 391ft 0kts
16-Dec-18 17:45 47.446228 -122.303182 248 391ft 0kts
16-Dec-18 17:46 47.446228 -122.303182 248 391ft 0kts
16-Dec-18 17:47 47.446228 -122.303182 248 391ft 0kts
16-Dec-18 17:48 47.446228 -122.303182 248 391ft 0kts
16-Dec-18 17:49 47.446228 -122.303182 248 391ft 0kts
16-Dec-18 17:50 47.446228 -122.303182 248 391ft 0kts
16-Dec-18 17:51 47.446228 -122.303182 248 391ft 0kts
16-Dec-18 17:53 47.446228 -122.303182 248 391ft 0kts
16-Dec-18 17:54 47.446228 -122.303182 248 391ft 0kts
16-Dec-18 17:55 47.446228 -122.303182 248 391ft 0kts
16-Dec-18 17:56 47.446228 -122.303182 248 391ft 0kts
16-Dec-18 17:57 47.446228 -122.303182 248 391ft 0kts
16-Dec-18 17:58 47.446228 -122.303182 248 391ft 0kts
16-Dec-18 17:59 47.446228 -122.303182 248 391ft 0kts
16-Dec-18 18:00 47.446228 -122.303182 248 391ft 0kts
16-Dec-18 18:01 47.446228 -122.303182 248 391ft 0kts
16-Dec-18 18:02 47.446228 -122.303182 248 391ft 0kts
16-Dec-18 18:03 47.446228 -122.303182 248 391ft 0kts
16-Dec-18 18:04 47.446228 -122.303182 248 391ft 0kts
16-Dec-18 18:05 47.446228 -122.303182 248 391ft 0kts
16-Dec-18 18:06 47.446228 -122.303182 248 391ft 0kts
16-Dec-18 18:07 47.446228 -122.303182 248 391ft 0kts
16-Dec-18 18:08 47.446228 -122.303182 248 391ft 0kts
16-Dec-18 18:09 47.446228 -122.303182 248 391ft 0kts
16-Dec-18 18:09 47.446228 -122.303182 248 391ft 0kts
16-Dec-18 18:11 47.446228 -122.303182 248 391ft 0kts
16-Dec-18 18:11 47.446228 -122.303182 248 391ft 0kts
16-Dec-18 18:13 47.446228 -122.303182 248 391ft 0kts
16-Dec-18 18:13 47.446228 -122.303182 248 391ft 0kts
16-Dec-18 18:14 47.446228 -122.303182 248 391ft 0kts
16-Dec-18 18:15 47.446228 -122.303182 248 391ft 0kts
16-Dec-18 18:17 47.446228 -122.303182 248 391ft 0kts
16-Dec-18 18:17 47.446228 -122.303182 248 391ft 0kts
16-Dec-18 18:18 47.446228 -122.303182 248 391ft 0kts
16-Dec-18 18:19 47.446228 -122.303182 248 391ft 0kts
16-Dec-18 18:20 47.446353 -122.302721 248 391ft 2kts
16-Dec-18 18:21 47.446124 -122.302280 4 389ft 0kts
16-Dec-18 18:22 47.446124 -122.302280 4 389ft 0kts
16-Dec-18 18:23 47.446124 -122.302280 4 389ft 0kts
16-Dec-18 18:24 47.446124 -122.302280 4 389ft 0kts
16-Dec-18 18:25 47.446400 -122.302261 1 390ft 5kts
16-Dec-18 18:26 47.447985 -122.304411 276 398ft 6kts
16-Dec-18 18:27 47.450074 -122.306248 358 407ft 22kts
16-Dec-18 18:28 47.453590 -122.306197 359 424ft 8kts
16-Dec-18 18:29 47.462663 -122.306347 321 422ft 16kts
16-Dec-18 18:30 47.462751 -122.306471 313 421ft 0kts
16-Dec-18 18:31 47.462753 -122.306473 315 421ft 0kts
16-Dec-18 18:32 47.463683 -122.306441 306 413ft 0kts
16-Dec-18 18:33 47.463683 -122.306441 306 413ft 0kts
16-Dec-18 18:34 47.463683 -122.306441 306 413ft 0kts
16-Dec-18 18:35 47.463683 -122.306441 306 413ft 0kts
16-Dec-18 18:36 47.463032 -122.307757 182 409ft 0kts
16-Dec-18 18:37 47.459648 -122.307791 180 431ft 81kts
16-Dec-18 18:38 47.414950 -122.309557 181 2912ft 190kts
16-Dec-18 18:39 47.361894 -122.311963 180 6854ft 202kts
16-Dec-18 18:40 47.305099 -122.314114 181 10506ft 214kts
16-Dec-18 18:41 47.274288 -122.259112 85 13629ft 224kts
16-Dec-18 18:42 47.279635 -122.154108 74 15239ft 321kts
16-Dec-18 18:43 47.356134 -122.083399 350 15970ft 345kts
16-Dec-18 18:44 47.438679 -122.156603 326 16214ft 388kts
16-Dec-18 18:45 47.534675 -122.231061 353 16248ft 410kts
16-Dec-18 18:46 47.643955 -122.246317 356 16199ft 401kts
16-Dec-18 18:47 47.751020 -122.258551 356 16200ft 393kts
16-Dec-18 18:48 47.858925 -122.270842 356 16200ft 388kts
16-Dec-18 18:49 47.965049 -122.291042 350 16200ft 385kts
16-Dec-18 18:50 48.070299 -122.321284 349 16201ft 389kts
16-Dec-18 18:51 48.175566 -122.351835 349 16203ft 394kts
16-Dec-18 18:52 48.281668 -122.382757 349 16201ft 398kts
16-Dec-18 18:53 48.390265 -122.414543 349 16202ft 401kts
16-Dec-18 18:54 48.499778 -122.446754 349 16202ft 402kts
16-Dec-18 18:55 48.609235 -122.479090 350 16201ft 404kts
16-Dec-18 18:56 48.711822 -122.524570 320 16197ft 368kts
16-Dec-18 18:57 48.776113 -122.638307 309 15518ft 351kts
16-Dec-18 18:58 48.833937 -122.753393 307 14518ft 342kts
16-Dec-18 18:59 48.890900 -122.867465 308 13512ft 336kts
16-Dec-18 19:00 48.946665 -122.979771 308 12254ft 329kts
16-Dec-18 19:01 49.000430 -123.088468 308 10720ft 319kts
16-Dec-18 19:02 49.053581 -123.196418 308 9019ft 319kts
16-Dec-18 19:03 49.103484 -123.297780 308 7332ft 285kts
16-Dec-18 19:04 49.144821 -123.382646 308 5661ft 240kts
16-Dec-18 19:05 49.182590 -123.461018 307 3957ft 224kts
16-Dec-18 19:06 49.217219 -123.533555 309 3196ft 191kts
16-Dec-18 19:07 49.246433 -123.525803 104 3402ft 159kts
16-Dec-18 19:08 49.219336 -123.466231 93 3170ft 165kts
16-Dec-18 19:09 49.212121 -123.397329 97 2484ft 161kts
16-Dec-18 19:10 49.204565 -123.333598 100 1717ft 149kts
16-Dec-18 19:11 49.197690 -123.273722 96 912ft 134kts
16-Dec-18 19:12 49.191388 -123.221142 96 329ft 122kts
16-Dec-18 19:13 49.188103 -123.182936 77 15ft 33kts
16-Dec-18 19:14 49.190498 -123.180010 39 15ft 19kts
16-Dec-18 19:15 49.191147 -123.178950 92 15ft 0kts
16-Dec-18 19:16 49.191147 -123.178950 92 15ft 0kts
16-Dec-18 19:17 49.191147 -123.178950 92 15ft 0kts
16-Dec-18 19:18 49.191147 -123.178950 92 15ft 0kts
16-Dec-18 19:19 49.191147 -123.178950 92 15ft 0kts
16-Dec-18 19:20 49.191147 -123.178950 92 15ft 0kts
16-Dec-18 19:21 49.191147 -123.178950 92 15ft 0kts
16-Dec-18 19:22 49.191147 -123.178950 92 15ft 0kts
16-Dec-18 19:23 33.666941 -117.872423 43 61ft 0kts
16-Dec-18 19:24 33.666941 -117.872423 43 61ft 0kts
16-Dec-18 19:25 33.666941 -117.872423 43 61ft 0kts
16-Dec-18 19:26 33.666941 -117.872423 43 61ft 0kts
16-Dec-18 19:27 33.666941 -117.872423 43 61ft 0kts

Navigation Log

Ident Type
Flight plan parsing failed, navigation log unavailable